sensor_id;sensor_type;location;lat;lon;timestamp;pressure;altitude;pressure_sealevel;temperature;humidity
20656;BME280;10487;53.320;8.672;2022-08-11T00:00:16;102252.31;;;16.66;43.99
20656;BME280;10487;53.320;8.672;2022-08-11T00:03:18;102254.50;;;16.61;44.31
20656;BME280;10487;53.320;8.672;2022-08-11T00:06:37;102251.06;;;16.59;44.33
20656;BME280;10487;53.320;8.672;2022-08-11T00:09:39;102253.75;;;16.59;44.13
20656;BME280;10487;53.320;8.672;2022-08-11T00:12:43;102251.19;;;16.58;44.20
20656;BME280;10487;53.320;8.672;2022-08-11T00:15:45;102253.16;;;16.56;44.37
20656;BME280;10487;53.320;8.672;2022-08-11T00:18:52;102246.38;;;16.50;44.22
20656;BME280;10487;53.320;8.672;2022-08-11T00:21:55;102247.81;;;16.43;44.29
20656;BME280;10487;53.320;8.672;2022-08-11T00:25:18;102251.91;;;16.36;44.51
20656;BME280;10487;53.320;8.672;2022-08-11T00:28:32;102246.28;;;16.28;44.50
20656;BME280;10487;53.320;8.672;2022-08-11T00:31:36;102257.47;;;16.22;44.63
20656;BME280;10487;53.320;8.672;2022-08-11T00:34:39;102245.44;;;16.15;44.69
20656;BME280;10487;53.320;8.672;2022-08-11T00:37:47;102249.56;;;16.08;44.70
20656;BME280;10487;53.320;8.672;2022-08-11T00:40:56;102251.78;;;16.01;44.84
20656;BME280;10487;53.320;8.672;2022-08-11T00:50:57;102242.06;;;15.75;45.03
20656;BME280;10487;53.320;8.672;2022-08-11T01:01:09;102239.41;;;15.50;45.25
20656;BME280;10487;53.320;8.672;2022-08-11T01:14:36;102251.59;;;15.55;45.41
20656;BME280;10487;53.320;8.672;2022-08-11T01:28:40;102251.78;;;15.52;45.39
20656;BME280;10487;53.320;8.672;2022-08-11T01:42:06;102250.84;;;15.41;45.29
20656;BME280;10487;53.320;8.672;2022-08-11T01:53:09;102248.81;;;15.32;45.68
20656;BME280;10487;53.320;8.672;2022-08-11T01:56:32;102249.88;;;15.29;45.64
20656;BME280;10487;53.320;8.672;2022-08-11T01:59:44;102250.09;;;15.26;45.61
20656;BME280;10487;53.320;8.672;2022-08-11T02:20:10;102244.41;;;14.79;45.85
20656;BME280;10487;53.320;8.672;2022-08-11T02:23:54;102241.38;;;14.71;46.17
20656;BME280;10487;53.320;8.672;2022-08-11T02:27:17;102239.00;;;14.66;46.18
20656;BME280;10487;53.320;8.672;2022-08-11T02:30:23;102241.03;;;14.63;45.91
20656;BME280;10487;53.320;8.672;2022-08-11T02:33:27;102242.88;;;14.62;46.23
20656;BME280;10487;53.320;8.672;2022-08-11T02:40:46;102240.47;;;14.58;46.13
20656;BME280;10487;53.320;8.672;2022-08-11T02:58:16;102237.28;;;14.38;46.42
20656;BME280;10487;53.320;8.672;2022-08-11T03:01:44;102235.63;;;14.36;46.50
20656;BME280;10487;53.320;8.672;2022-08-11T03:08:30;102233.06;;;14.34;46.40
20656;BME280;10487;53.320;8.672;2022-08-11T03:11:51;102230.38;;;14.34;46.36
20656;BME280;10487;53.320;8.672;2022-08-11T03:15:19;102236.69;;;14.33;46.42
20656;BME280;10487;53.320;8.672;2022-08-11T03:18:55;102249.25;;;14.33;46.60
20656;BME280;10487;53.320;8.672;2022-08-11T03:22:42;102248.69;;;14.28;46.42
20656;BME280;10487;53.320;8.672;2022-08-11T03:29:10;102238.88;;;14.14;46.82
20656;BME280;10487;53.320;8.672;2022-08-11T03:32:29;102236.38;;;14.11;46.89
20656;BME280;10487;53.320;8.672;2022-08-11T03:35:40;102244.44;;;14.11;46.68
20656;BME280;10487;53.320;8.672;2022-08-11T03:42:24;102249.13;;;14.08;47.02
20656;BME280;10487;53.320;8.672;2022-08-11T03:45:50;102247.50;;;14.05;46.66
20656;BME280;10487;53.320;8.672;2022-08-11T03:52:31;102240.56;;;14.03;46.79
20656;BME280;10487;53.320;8.672;2022-08-11T04:06:19;102242.75;;;13.96;46.55
20656;BME280;10487;53.320;8.672;2022-08-11T04:29:56;102240.28;;;13.79;46.65
20656;BME280;10487;53.320;8.672;2022-08-11T04:50:25;102236.75;;;13.79;46.81
20656;BME280;10487;53.320;8.672;2022-08-11T04:54:22;102238.56;;;13.78;47.01
20656;BME280;10487;53.320;8.672;2022-08-11T04:57:47;102233.97;;;13.80;47.03
20656;BME280;10487;53.320;8.672;2022-08-11T05:01:37;102235.59;;;13.83;47.19
20656;BME280;10487;53.320;8.672;2022-08-11T05:05:08;102243.25;;;13.89;47.13
20656;BME280;10487;53.320;8.672;2022-08-11T05:15:18;102244.94;;;14.04;46.94
20656;BME280;10487;53.320;8.672;2022-08-11T05:18:51;102240.13;;;14.09;46.83
20656;BME280;10487;53.320;8.672;2022-08-11T05:22:17;102241.66;;;14.13;47.07
20656;BME280;10487;53.320;8.672;2022-08-11T05:25:43;102244.06;;;14.17;46.94
20656;BME280;10487;53.320;8.672;2022-08-11T05:29:45;102247.31;;;14.22;47.24
20656;BME280;10487;53.320;8.672;2022-08-11T05:33:09;102255.06;;;14.27;47.37
20656;BME280;10487;53.320;8.672;2022-08-11T05:36:44;102255.63;;;14.32;47.26
20656;BME280;10487;53.320;8.672;2022-08-11T05:39:48;102254.44;;;14.36;47.35
20656;BME280;10487;53.320;8.672;2022-08-11T05:43:11;102250.22;;;14.46;47.43
20656;BME280;10487;53.320;8.672;2022-08-11T05:46:40;102253.84;;;14.72;47.53
20656;BME280;10487;53.320;8.672;2022-08-11T05:50:07;102260.88;;;14.87;47.54
20656;BME280;10487;53.320;8.672;2022-08-11T05:53:33;102255.63;;;14.98;47.41
20656;BME280;10487;53.320;8.672;2022-08-11T05:56:56;102253.16;;;15.08;47.46
20656;BME280;10487;53.320;8.672;2022-08-11T06:00:05;102260.47;;;15.18;47.44
20656;BME280;10487;53.320;8.672;2022-08-11T06:03:21;102256.34;;;15.27;47.56
20656;BME280;10487;53.320;8.672;2022-08-11T06:06:26;102257.38;;;15.37;47.49
20656;BME280;10487;53.320;8.672;2022-08-11T06:09:36;102265.69;;;15.46;47.59
20656;BME280;10487;53.320;8.672;2022-08-11T06:12:41;102256.09;;;15.55;47.56
20656;BME280;10487;53.320;8.672;2022-08-11T06:15:48;102260.72;;;15.65;47.61
20656;BME280;10487;53.320;8.672;2022-08-11T06:18:50;102251.97;;;15.75;47.61
20656;BME280;10487;53.320;8.672;2022-08-11T06:21:52;102253.91;;;15.85;47.75
20656;BME280;10487;53.320;8.672;2022-08-11T06:24:59;102249.56;;;15.95;47.41
20656;BME280;10487;53.320;8.672;2022-08-11T06:28:06;102250.72;;;16.04;47.41
20656;BME280;10487;53.320;8.672;2022-08-11T06:31:17;102254.50;;;16.14;47.47
20656;BME280;10487;53.320;8.672;2022-08-11T06:34:32;102247.22;;;16.27;47.67
20656;BME280;10487;53.320;8.672;2022-08-11T06:47:45;102246.44;;;16.85;47.55
20656;BME280;10487;53.320;8.672;2022-08-11T06:50:50;102244.63;;;16.97;47.38
20656;BME280;10487;53.320;8.672;2022-08-11T06:54:12;102242.47;;;17.13;47.41
20656;BME280;10487;53.320;8.672;2022-08-11T06:57:17;102250.78;;;17.21;47.25
20656;BME280;10487;53.320;8.672;2022-08-11T07:00:39;102244.81;;;17.28;47.20
20656;BME280;10487;53.320;8.672;2022-08-11T07:03:49;102249.59;;;17.36;47.52
20656;BME280;10487;53.320;8.672;2022-08-11T07:07:05;102254.38;;;17.43;47.40
20656;BME280;10487;53.320;8.672;2022-08-11T07:14:07;102246.91;;;17.58;47.50
20656;BME280;10487;53.320;8.672;2022-08-11T07:17:40;102247.69;;;17.71;47.16
20656;BME280;10487;53.320;8.672;2022-08-11T07:20:43;102247.94;;;17.79;47.30
20656;BME280;10487;53.320;8.672;2022-08-11T07:24:32;102259.44;;;17.92;47.08
20656;BME280;10487;53.320;8.672;2022-08-11T07:28:09;102258.72;;;18.01;47.38
20656;BME280;10487;53.320;8.672;2022-08-11T07:31:43;102249.84;;;18.10;47.36
20656;BME280;10487;53.320;8.672;2022-08-11T07:34:49;102252.63;;;18.20;47.37
20656;BME280;10487;53.320;8.672;2022-08-11T07:37:57;102242.94;;;18.29;47.34
20656;BME280;10487;53.320;8.672;2022-08-11T07:41:03;102252.03;;;18.39;47.10
20656;BME280;10487;53.320;8.672;2022-08-11T07:44:09;102255.69;;;18.49;46.92
20656;BME280;10487;53.320;8.672;2022-08-11T07:47:13;102254.66;;;18.61;46.87
20656;BME280;10487;53.320;8.672;2022-08-11T07:50:34;102262.44;;;18.75;47.27
20656;BME280;10487;53.320;8.672;2022-08-11T07:53:56;102260.66;;;18.85;46.70
20656;BME280;10487;53.320;8.672;2022-08-11T07:57:17;102249.81;;;18.96;46.64
20656;BME280;10487;53.320;8.672;2022-08-11T08:00:59;102256.97;;;19.07;47.06
20656;BME280;10487;53.320;8.672;2022-08-11T08:04:23;102255.97;;;19.19;46.81
20656;BME280;10487;53.320;8.672;2022-08-11T08:07:47;102260.31;;;19.31;46.78
20656;BME280;10487;53.320;8.672;2022-08-11T08:11:08;102254.41;;;19.46;46.56
20656;BME280;10487;53.320;8.672;2022-08-11T08:14:29;102256.78;;;19.61;46.86
20656;BME280;10487;53.320;8.672;2022-08-11T08:17:50;102253.47;;;19.78;46.85
20656;BME280;10487;53.320;8.672;2022-08-11T08:21:17;102252.78;;;19.95;47.14
20656;BME280;10487;53.320;8.672;2022-08-11T08:24:20;102255.00;;;20.11;46.77
20656;BME280;10487;53.320;8.672;2022-08-11T08:27:22;102261.84;;;20.24;46.65
20656;BME280;10487;53.320;8.672;2022-08-11T08:30:28;102259.03;;;20.35;46.84
20656;BME280;10487;53.320;8.672;2022-08-11T08:33:50;102259.06;;;20.45;46.46
20656;BME280;10487;53.320;8.672;2022-08-11T08:36:53;102251.06;;;20.53;46.61
20656;BME280;10487;53.320;8.672;2022-08-11T08:39:55;102255.66;;;20.62;46.30
20656;BME280;10487;53.320;8.672;2022-08-11T08:43:03;102254.66;;;20.73;46.24
20656;BME280;10487;53.320;8.672;2022-08-11T08:46:09;102249.34;;;20.81;45.82
20656;BME280;10487;53.320;8.672;2022-08-11T08:49:18;102245.81;;;20.90;45.81
20656;BME280;10487;53.320;8.672;2022-08-11T08:52:23;102246.66;;;21.00;45.88
20656;BME280;10487;53.320;8.672;2022-08-11T08:55:45;102243.03;;;21.09;45.62
20656;BME280;10487;53.320;8.672;2022-08-11T08:58:48;102245.94;;;21.17;45.43
20656;BME280;10487;53.320;8.672;2022-08-11T09:01:57;102241.63;;;21.24;45.42
20656;BME280;10487;53.320;8.672;2022-08-11T09:05:00;102239.03;;;21.32;45.22
20656;BME280;10487;53.320;8.672;2022-08-11T09:08:03;102237.44;;;21.39;45.18
20656;BME280;10487;53.320;8.672;2022-08-11T09:11:05;102240.41;;;21.46;45.10
20656;BME280;10487;53.320;8.672;2022-08-11T09:14:32;102233.38;;;21.53;44.86
20656;BME280;10487;53.320;8.672;2022-08-11T09:17:54;102238.75;;;21.62;44.65
20656;BME280;10487;53.320;8.672;2022-08-11T09:21:02;102234.31;;;21.71;44.63
20656;BME280;10487;53.320;8.672;2022-08-11T09:24:05;102230.00;;;21.78;44.40
20656;BME280;10487;53.320;8.672;2022-08-11T09:27:27;102233.81;;;21.85;44.14
20656;BME280;10487;53.320;8.672;2022-08-11T09:30:30;102233.94;;;21.93;44.04
20656;BME280;10487;53.320;8.672;2022-08-11T09:33:32;102226.75;;;22.02;44.04
20656;BME280;10487;53.320;8.672;2022-08-11T09:36:38;102219.34;;;22.12;43.89
20656;BME280;10487;53.320;8.672;2022-08-11T09:39:59;102224.41;;;22.24;43.90
20656;BME280;10487;53.320;8.672;2022-08-11T09:43:21;102220.19;;;22.39;43.48
20656;BME280;10487;53.320;8.672;2022-08-11T09:46:43;102223.22;;;22.54;43.36
20656;BME280;10487;53.320;8.672;2022-08-11T09:49:45;102221.66;;;22.69;43.43
20656;BME280;10487;53.320;8.672;2022-08-11T09:52:49;102216.50;;;22.84;42.98
20656;BME280;10487;53.320;8.672;2022-08-11T09:56:15;102213.66;;;23.03;42.85
20656;BME280;10487;53.320;8.672;2022-08-11T09:59:37;102207.44;;;23.18;42.74
20656;BME280;10487;53.320;8.672;2022-08-11T10:02:42;102204.31;;;23.39;42.92
20656;BME280;10487;53.320;8.672;2022-08-11T10:05:51;102208.53;;;23.59;42.90
20656;BME280;10487;53.320;8.672;2022-08-11T10:09:16;102203.00;;;23.77;42.12
20656;BME280;10487;53.320;8.672;2022-08-11T10:12:22;102195.06;;;23.92;42.04
20656;BME280;10487;53.320;8.672;2022-08-11T10:15:25;102182.50;;;24.07;42.32
20656;BME280;10487;53.320;8.672;2022-08-11T10:18:37;102185.78;;;24.26;42.06
20656;BME280;10487;53.320;8.672;2022-08-11T10:21:51;102187.31;;;24.45;41.61
20656;BME280;10487;53.320;8.672;2022-08-11T10:25:13;102195.72;;;24.60;41.38
20656;BME280;10487;53.320;8.672;2022-08-11T10:28:34;102182.72;;;24.70;41.56
20656;BME280;10487;53.320;8.672;2022-08-11T10:31:57;102178.69;;;24.82;41.41
20656;BME280;10487;53.320;8.672;2022-08-11T10:35:20;102177.13;;;24.95;41.53
20656;BME280;10487;53.320;8.672;2022-08-11T10:38:27;102173.69;;;25.01;41.21
20656;BME280;10487;53.320;8.672;2022-08-11T10:41:30;102170.94;;;25.09;41.37
20656;BME280;10487;53.320;8.672;2022-08-11T10:45:10;102172.97;;;25.24;41.27
20656;BME280;10487;53.320;8.672;2022-08-11T10:48:35;102170.53;;;25.45;40.95
20656;BME280;10487;53.320;8.672;2022-08-11T10:51:39;102172.84;;;25.64;40.81
20656;BME280;10487;53.320;8.672;2022-08-11T10:54:59;102170.34;;;25.85;40.56
20656;BME280;10487;53.320;8.672;2022-08-11T10:58:21;102173.69;;;26.03;40.59
20656;BME280;10487;53.320;8.672;2022-08-11T11:01:43;102165.09;;;26.06;40.08
20656;BME280;10487;53.320;8.672;2022-08-11T11:04:57;102163.53;;;26.12;40.14
20656;BME280;10487;53.320;8.672;2022-08-11T11:08:12;102166.88;;;26.22;40.10
20656;BME280;10487;53.320;8.672;2022-08-11T11:11:38;102164.41;;;26.35;39.97
20656;BME280;10487;53.320;8.672;2022-08-11T11:15:02;102156.47;;;26.48;39.95
20656;BME280;10487;53.320;8.672;2022-08-11T11:18:25;102153.19;;;26.67;39.67
20656;BME280;10487;53.320;8.672;2022-08-11T11:21:29;102147.19;;;26.86;39.80
20656;BME280;10487;53.320;8.672;2022-08-11T11:28:08;102148.09;;;27.02;39.43
20656;BME280;10487;53.320;8.672;2022-08-11T11:38:00;102144.69;;;27.14;39.26
20656;BME280;10487;53.320;8.672;2022-08-11T11:41:07;102145.63;;;27.21;38.97
20656;BME280;10487;53.320;8.672;2022-08-11T11:44:28;102146.88;;;27.19;38.92
20656;BME280;10487;53.320;8.672;2022-08-11T11:47:31;102144.03;;;27.27;38.83
20656;BME280;10487;53.320;8.672;2022-08-11T11:50:35;102134.38;;;27.31;38.70
20656;BME280;10487;53.320;8.672;2022-08-11T11:53:41;102129.97;;;27.30;38.60
20656;BME280;10487;53.320;8.672;2022-08-11T11:56:44;102136.69;;;27.27;38.33
20656;BME280;10487;53.320;8.672;2022-08-11T11:59:50;102130.53;;;27.25;38.35
20656;BME280;10487;53.320;8.672;2022-08-11T12:03:12;102136.09;;;27.32;38.55
20656;BME280;10487;53.320;8.672;2022-08-11T12:06:16;102142.03;;;27.50;38.33
20656;BME280;10487;53.320;8.672;2022-08-11T12:09:18;102131.63;;;27.60;38.09
20656;BME280;10487;53.320;8.672;2022-08-11T12:12:25;102134.66;;;27.65;37.96
20656;BME280;10487;53.320;8.672;2022-08-11T12:15:47;102126.41;;;27.65;37.80
20656;BME280;10487;53.320;8.672;2022-08-11T12:19:13;102121.78;;;27.66;37.79
20656;BME280;10487;53.320;8.672;2022-08-11T12:22:16;102121.56;;;27.82;37.65
20656;BME280;10487;53.320;8.672;2022-08-11T12:25:38;102114.91;;;27.91;37.74
20656;BME280;10487;53.320;8.672;2022-08-11T12:29:20;102114.59;;;28.00;37.72
20656;BME280;10487;53.320;8.672;2022-08-11T12:32:31;102110.53;;;28.11;37.35
20656;BME280;10487;53.320;8.672;2022-08-11T12:35:35;102106.78;;;28.18;37.66
20656;BME280;10487;53.320;8.672;2022-08-11T12:38:37;102108.72;;;28.24;37.39
20656;BME280;10487;53.320;8.672;2022-08-11T12:41:41;102090.63;;;28.30;37.46
20656;BME280;10487;53.320;8.672;2022-08-11T12:45:05;102104.81;;;28.34;37.05
20656;BME280;10487;53.320;8.672;2022-08-11T12:48:31;102098.63;;;28.25;36.60
20656;BME280;10487;53.320;8.672;2022-08-11T12:52:05;102095.69;;;28.27;36.91
20656;BME280;10487;53.320;8.672;2022-08-11T12:55:17;102076.00;;;28.23;36.46
20656;BME280;10487;53.320;8.672;2022-08-11T12:58:42;102077.59;;;28.11;36.57
20656;BME280;10487;53.320;8.672;2022-08-11T13:01:46;102078.38;;;28.05;36.31
20656;BME280;10487;53.320;8.672;2022-08-11T13:05:13;102074.69;;;27.98;36.70
20656;BME280;10487;53.320;8.672;2022-08-11T13:08:16;102064.78;;;27.97;36.65
20656;BME280;10487;53.320;8.672;2022-08-11T13:11:18;102068.34;;;27.97;36.36
20656;BME280;10487;53.320;8.672;2022-08-11T13:14:58;102070.53;;;28.02;36.06
20656;BME280;10487;53.320;8.672;2022-08-11T13:18:02;102060.22;;;28.04;36.43
20656;BME280;10487;53.320;8.672;2022-08-11T13:21:05;102049.94;;;28.12;36.11
20656;BME280;10487;53.320;8.672;2022-08-11T13:24:07;102051.31;;;28.23;36.06
20656;BME280;10487;53.320;8.672;2022-08-11T13:27:09;102046.47;;;28.25;36.17
20656;BME280;10487;53.320;8.672;2022-08-11T13:30:13;102047.72;;;28.22;35.85
20656;BME280;10487;53.320;8.672;2022-08-11T13:33:45;102048.78;;;28.21;36.06
20656;BME280;10487;53.320;8.672;2022-08-11T13:36:52;102052.81;;;28.25;36.01
20656;BME280;10487;53.320;8.672;2022-08-11T13:39:54;102050.06;;;28.25;35.71
20656;BME280;10487;53.320;8.672;2022-08-11T13:42:56;102048.84;;;28.28;35.84
20656;BME280;10487;53.320;8.672;2022-08-11T13:45:59;102049.09;;;28.33;35.79
20656;BME280;10487;53.320;8.672;2022-08-11T13:49:23;102051.69;;;28.41;35.75
20656;BME280;10487;53.320;8.672;2022-08-11T13:52:26;102046.63;;;28.45;35.40
20656;BME280;10487;53.320;8.672;2022-08-11T13:55:31;102038.59;;;28.43;35.70
20656;BME280;10487;53.320;8.672;2022-08-11T13:58:53;102035.88;;;28.43;35.18
20656;BME280;10487;53.320;8.672;2022-08-11T14:02:02;102041.34;;;28.43;35.02
20656;BME280;10487;53.320;8.672;2022-08-11T14:05:30;102035.00;;;28.43;35.45
20656;BME280;10487;53.320;8.672;2022-08-11T14:08:36;102020.38;;;28.36;34.70
20656;BME280;10487;53.320;8.672;2022-08-11T14:11:43;102022.25;;;28.29;34.79
20656;BME280;10487;53.320;8.672;2022-08-11T14:15:34;102016.50;;;28.23;35.26
20656;BME280;10487;53.320;8.672;2022-08-11T14:18:39;102008.78;;;28.34;35.01
20656;BME280;10487;53.320;8.672;2022-08-11T14:21:44;102010.94;;;28.45;34.89
20656;BME280;10487;53.320;8.672;2022-08-11T14:25:09;102007.00;;;28.54;34.80
20656;BME280;10487;53.320;8.672;2022-08-11T14:28:13;102005.91;;;28.48;34.54
20656;BME280;10487;53.320;8.672;2022-08-11T14:31:36;102012.75;;;28.31;34.64
20656;BME280;10487;53.320;8.672;2022-08-11T14:34:42;101997.09;;;28.25;34.49
20656;BME280;10487;53.320;8.672;2022-08-11T14:37:45;102001.31;;;28.28;34.40
20656;BME280;10487;53.320;8.672;2022-08-11T14:40:47;102004.88;;;28.21;34.38
20656;BME280;10487;53.320;8.672;2022-08-11T14:44:09;101991.34;;;28.20;34.48
20656;BME280;10487;53.320;8.672;2022-08-11T14:47:33;101991.81;;;28.23;34.60
20656;BME280;10487;53.320;8.672;2022-08-11T14:50:35;101988.59;;;28.20;34.40
20656;BME280;10487;53.320;8.672;2022-08-11T14:53:39;101978.13;;;28.30;34.35
20656;BME280;10487;53.320;8.672;2022-08-11T14:56:58;101984.50;;;28.37;34.21
20656;BME280;10487;53.320;8.672;2022-08-11T15:00:06;101982.84;;;28.43;34.59
20656;BME280;10487;53.320;8.672;2022-08-11T15:03:10;101980.47;;;28.33;33.97
20656;BME280;10487;53.320;8.672;2022-08-11T15:06:14;101985.47;;;28.23;34.19
20656;BME280;10487;53.320;8.672;2022-08-11T15:09:16;101980.44;;;28.27;34.36
20656;BME280;10487;53.320;8.672;2022-08-11T15:12:18;101981.06;;;28.29;34.01
20656;BME280;10487;53.320;8.672;2022-08-11T15:15:34;101983.22;;;28.33;33.90
20656;BME280;10487;53.320;8.672;2022-08-11T15:18:55;101981.06;;;28.29;33.91
20656;BME280;10487;53.320;8.672;2022-08-11T15:21:58;101974.44;;;28.16;33.86
20656;BME280;10487;53.320;8.672;2022-08-11T15:25:19;101966.84;;;28.18;33.66
20656;BME280;10487;53.320;8.672;2022-08-11T15:28:22;101970.72;;;28.24;33.69
20656;BME280;10487;53.320;8.672;2022-08-11T15:31:43;101963.91;;;28.20;34.11
20656;BME280;10487;53.320;8.672;2022-08-11T15:35:03;101961.13;;;28.13;33.64
20656;BME280;10487;53.320;8.672;2022-08-11T15:38:25;101952.25;;;28.11;33.81
20656;BME280;10487;53.320;8.672;2022-08-11T15:42:06;101947.09;;;28.02;33.64
20656;BME280;10487;53.320;8.672;2022-08-11T15:45:29;101951.66;;;27.95;33.87
20656;BME280;10487;53.320;8.672;2022-08-11T15:48:55;101948.00;;;27.88;33.50
20656;BME280;10487;53.320;8.672;2022-08-11T15:52:02;101945.22;;;27.81;33.40
20656;BME280;10487;53.320;8.672;2022-08-11T15:55:07;101942.59;;;27.73;33.36
20656;BME280;10487;53.320;8.672;2022-08-11T15:58:11;101943.22;;;27.69;33.62
20656;BME280;10487;53.320;8.672;2022-08-11T16:01:33;101941.25;;;27.62;33.24
20656;BME280;10487;53.320;8.672;2022-08-11T16:04:55;101937.22;;;27.58;33.37
20656;BME280;10487;53.320;8.672;2022-08-11T16:07:58;101934.84;;;27.55;33.35
20656;BME280;10487;53.320;8.672;2022-08-11T16:11:04;101944.31;;;27.53;33.48
20656;BME280;10487;53.320;8.672;2022-08-11T16:14:11;101935.81;;;27.48;33.25
20656;BME280;10487;53.320;8.672;2022-08-11T16:17:35;101926.50;;;27.42;33.45
20656;BME280;10487;53.320;8.672;2022-08-11T16:20:38;101924.53;;;27.36;32.87
20656;BME280;10487;53.320;8.672;2022-08-11T16:23:44;101921.03;;;27.28;33.31
20656;BME280;10487;53.320;8.672;2022-08-11T16:26:47;101924.56;;;27.22;33.38
20656;BME280;10487;53.320;8.672;2022-08-11T16:30:10;101919.47;;;27.19;33.06
20656;BME280;10487;53.320;8.672;2022-08-11T16:33:12;101922.88;;;27.21;33.03
20656;BME280;10487;53.320;8.672;2022-08-11T16:36:35;101922.03;;;27.20;32.89
20656;BME280;10487;53.320;8.672;2022-08-11T16:39:56;101914.00;;;27.19;33.05
20656;BME280;10487;53.320;8.672;2022-08-11T16:42:58;101909.16;;;27.21;33.11
20656;BME280;10487;53.320;8.672;2022-08-11T16:46:21;101913.34;;;27.17;32.87
20656;BME280;10487;53.320;8.672;2022-08-11T16:49:44;101920.94;;;27.15;32.95
20656;BME280;10487;53.320;8.672;2022-08-11T16:52:53;101915.19;;;27.10;32.96
20656;BME280;10487;53.320;8.672;2022-08-11T16:55:56;101904.97;;;27.04;32.96
20656;BME280;10487;53.320;8.672;2022-08-11T16:59:00;101901.97;;;26.98;33.05
20656;BME280;10487;53.320;8.672;2022-08-11T17:02:18;101903.38;;;26.94;32.80
20656;BME280;10487;53.320;8.672;2022-08-11T17:05:49;101892.81;;;26.91;32.76
20656;BME280;10487;53.320;8.672;2022-08-11T17:09:13;101902.63;;;26.86;32.96
20656;BME280;10487;53.320;8.672;2022-08-11T17:12:37;101900.69;;;26.80;32.66
20656;BME280;10487;53.320;8.672;2022-08-11T17:16:00;101902.28;;;26.74;32.77
20656;BME280;10487;53.320;8.672;2022-08-11T17:19:24;101893.81;;;26.69;32.60
20656;BME280;10487;53.320;8.672;2022-08-11T17:22:48;101884.94;;;26.67;32.74
20656;BME280;10487;53.320;8.672;2022-08-11T17:26:34;101897.13;;;26.65;32.65
20656;BME280;10487;53.320;8.672;2022-08-11T17:29:58;101888.84;;;26.58;32.59
20656;BME280;10487;53.320;8.672;2022-08-11T17:33:01;101889.22;;;26.55;32.53
20656;BME280;10487;53.320;8.672;2022-08-11T17:36:22;101890.63;;;26.51;32.44
20656;BME280;10487;53.320;8.672;2022-08-11T17:39:29;101890.53;;;26.45;32.48
20656;BME280;10487;53.320;8.672;2022-08-11T17:42:33;101884.75;;;26.39;32.63
20656;BME280;10487;53.320;8.672;2022-08-11T17:45:55;101879.84;;;26.35;32.66
20656;BME280;10487;53.320;8.672;2022-08-11T17:49:17;101879.38;;;26.31;32.74
20656;BME280;10487;53.320;8.672;2022-08-11T17:52:22;101884.38;;;26.28;32.69
20656;BME280;10487;53.320;8.672;2022-08-11T17:55:44;101881.75;;;26.20;32.60
20656;BME280;10487;53.320;8.672;2022-08-11T17:59:25;101888.16;;;26.12;32.52
20656;BME280;10487;53.320;8.672;2022-08-11T18:02:50;101890.41;;;26.09;32.76
20656;BME280;10487;53.320;8.672;2022-08-11T18:06:13;101899.00;;;26.06;32.71
20656;BME280;10487;53.320;8.672;2022-08-11T18:09:18;101898.03;;;25.99;32.83
20656;BME280;10487;53.320;8.672;2022-08-11T18:12:41;101891.97;;;25.89;32.82
20656;BME280;10487;53.320;8.672;2022-08-11T18:16:02;101898.91;;;25.76;32.80
20656;BME280;10487;53.320;8.672;2022-08-11T18:19:22;101894.91;;;25.64;33.20
20656;BME280;10487;53.320;8.672;2022-08-11T18:22:43;101903.22;;;25.56;33.54
20656;BME280;10487;53.320;8.672;2022-08-11T18:26:05;101910.59;;;25.48;33.36
20656;BME280;10487;53.320;8.672;2022-08-11T18:29:27;101911.53;;;25.40;33.34
20656;BME280;10487;53.320;8.672;2022-08-11T18:32:50;101911.22;;;25.35;33.59
20656;BME280;10487;53.320;8.672;2022-08-11T18:36:37;101912.63;;;25.23;33.55
20656;BME280;10487;53.320;8.672;2022-08-11T18:40:04;101912.69;;;25.15;33.52
20656;BME280;10487;53.320;8.672;2022-08-11T18:43:27;101920.91;;;25.07;34.03
20656;BME280;10487;53.320;8.672;2022-08-11T18:46:49;101918.25;;;24.99;34.10
20656;BME280;10487;53.320;8.672;2022-08-11T18:50:11;101915.22;;;24.94;34.02
20656;BME280;10487;53.320;8.672;2022-08-11T18:53:42;101910.31;;;24.89;33.70
20656;BME280;10487;53.320;8.672;2022-08-11T18:57:06;101925.50;;;24.84;33.66
20656;BME280;10487;53.320;8.672;2022-08-11T19:00:27;101911.53;;;24.79;33.91
20656;BME280;10487;53.320;8.672;2022-08-11T19:03:48;101926.84;;;24.88;34.24
20656;BME280;10487;53.320;8.672;2022-08-11T19:07:18;101922.63;;;24.77;34.46
20656;BME280;10487;53.320;8.672;2022-08-11T19:10:42;101919.72;;;24.71;34.11
20656;BME280;10487;53.320;8.672;2022-08-11T19:14:04;101920.63;;;24.63;34.45
20656;BME280;10487;53.320;8.672;2022-08-11T19:17:26;101922.69;;;24.53;34.44
20656;BME280;10487;53.320;8.672;2022-08-11T19:20:49;101926.84;;;24.41;34.10
20656;BME280;10487;53.320;8.672;2022-08-11T19:24:11;101926.19;;;24.31;34.20
20656;BME280;10487;53.320;8.672;2022-08-11T19:27:33;101927.06;;;24.23;34.10
20656;BME280;10487;53.320;8.672;2022-08-11T19:30:54;101935.06;;;24.17;34.38
20656;BME280;10487;53.320;8.672;2022-08-11T19:34:16;101929.28;;;24.12;34.60
20656;BME280;10487;53.320;8.672;2022-08-11T19:37:38;101935.41;;;24.06;34.62
20656;BME280;10487;53.320;8.672;2022-08-11T19:40:59;101933.06;;;24.03;34.68
20656;BME280;10487;53.320;8.672;2022-08-11T19:44:40;101936.13;;;24.00;34.28
20656;BME280;10487;53.320;8.672;2022-08-11T19:48:00;101944.09;;;23.93;34.47
20656;BME280;10487;53.320;8.672;2022-08-11T19:51:34;101942.09;;;23.87;34.68
20656;BME280;10487;53.320;8.672;2022-08-11T19:54:55;101948.88;;;23.83;34.36
20656;BME280;10487;53.320;8.672;2022-08-11T19:58:17;101948.72;;;23.76;34.85
20656;BME280;10487;53.320;8.672;2022-08-11T20:01:39;101952.47;;;23.67;34.44
20656;BME280;10487;53.320;8.672;2022-08-11T20:05:14;101948.00;;;23.58;34.59